Tiempo atmosférico en la estación meteorológica de Badajoz, Badajoz (175 m.)



Fecha
DESCASC
Temp. máxima en grados centígrados (hora)
DESCASC
Temp. mínima en grados centígrados (hora)
DESCASC
Temp. media en grados centígrados
DESCASC
Racha de viento máxima en m/sg (hora)
DESCASC
Velocidad máxima media en intervalos de 10 minutos(hora)
DESCASC
Precipitaciones diarias en mm
DESCASC
Precipitaciones de 00:00 a 06:00 en mm
DESCASC
Precipitaciones de 06:00 a 12:00 en mm
DESCASC
Precipitaciones de 12:00 a 18:00 en mm
DESCASC
Precipitaciones de 18:00 a 24:00 en mm
DESCASC
18-08-2019 34.6 (17:00) 16.6 (06:30) 25.6 11.11 (20:50) 6.94 (00:10) 0 0 0 0 0
17-08-2019 38.5 (18:10) 15.6 (07:00) 27.1 10.28 (22:30) 6.67 (23:30) 0 0 0 0 0
16-08-2019 39.3 (17:50) 19.2 (07:50) 29.3 9.72 (19:50) 6.11 (20:00) 0 0 0 0 0
15-08-2019 40.6 (16:30) 18.6 (00:00) 29.6 9.72 (22:00) 6.11 (21:00) 0 0 0 0 0
14-08-2019 39.4 (17:00) 14.8 (00:00) 27.1 9.72 (23:59) 5 (22:10) 0 0 0 0 0
13-08-2019 36.1 (17:20) 13.4 (00:00) 24.7 8.61 (22:30) 4.72 (23:59) 0 0 0 0 0
12-08-2019 33.4 (16:20) 13 (00:00) 23.2 10 (14:10) 5.56 (17:10) 0 0 0 0 0
11-08-2019 30.8 (16:30) 15.3 (00:00) 23 10.28 (04:20) 5.83 (04:20) 0 0 0 0 0
10-08-2019 33.1 (17:50) 15.2 (00:00) 24.1 13.89 (23:10) 7.22 (22:10) 0 0 0 0 0
09-08-2019 28.3 (16:30) 21.7 (00:00) 25 8.89 (13:50) 6.39 (14:50) 0.6 0 0 0.6 0
08-08-2019 35 (17:50) 18.8 (00:00) 26.9 9.72 (17:20) 5.28 (18:10) 0 0 0 0 0
07-08-2019 28.8 (19:10) 19.8 (00:00) 24.3 7.78 (03:10) 4.72 (00:20) 0 0 0 0 0
06-08-2019 35.7 (17:20) 17.8 (00:00) 26.8 9.44 (19:10) 5.56 (19:10) 0 0 0 0 0
05-08-2019 37 (18:00) 15 (00:00) 26 8.33 (00:10) 5.56 (20:30) 0 0 0 0 0
04-08-2019 36.6 (16:40) 17.2 (00:00) 26.9 10.28 (20:50) 6.11 (20:50) 0 0 0 0 0
03-08-2019 36.9 (18:40) 15 (00:00) 26 11.67 (22:20) 7.5 (22:10) 0 0 0 0 0
02-08-2019 36.8 (17:50) 15.1 (00:00) 25.9 10.83 (23:40) 6.39 (23:40) 0 0 0 0 0
01-08-2019 36.5 (17:10) 16.1 (00:00) 26.3 9.17 (23:10) 5.56 (19:30) 0 0 0 0 0
31-07-2019 37.4 (17:30) 12.5 (00:00) 25 11.67 (20:10) 7.5 (20:00) 0 0 0 0 0
30-07-2019 34.6 (17:10) 12.9 (00:00) 23.7 10 (13:00) 5.56 (23:20) 0 0 0 0 0
29-07-2019 32.9 (17:40) 16 (00:00) 24.5 12.22 (00:40) 7.78 (00:40) 0 0 0 0 0
28-07-2019 34.7 (17:50) 16 (00:00) 25.4 11.11 (23:59) 6.39 (23:50) 0 0 0 0 0
27-07-2019 29.8 (17:50) 16.9 (00:00) 23.3 11.11 (15:10) 6.11 (18:40) 0 0 0 0 0
26-07-2019 31.9 (17:00) 16.1 (00:00) 24 11.39 (22:50) 7.5 (22:50) 0 0 0 0 0
25-07-2019 35.5 (16:50) 18.4 (00:00) 26.9 13.61 (22:30) 8.33 (21:30) 0 0 0 0 0
24-07-2019 39 (17:50) 18.4 (00:00) 28.7 9.17 (22:40) 5.83 (22:20) 0 0 0 0 0
23-07-2019 38.4 (18:10) 21.8 (00:00) 30.1 9.44 (22:50) 6.39 (21:10) 0 0 0 0 0
22-07-2019 40.8 (18:30) 18.7 (00:00) 29.8 10.83 (23:00) 5.83 (23:00) 0 0 0 0 0
21-07-2019 39.7 (18:00) 16.2 (00:00) 28 9.44 (23:00) 5.56 (23:00) 0 0 0 0 0

Gráficas

Temp. máximas Temp. mínimas Temp. medias Precipitaciones Rachas de viento máximas Velocidades máximas media en intervalos de 10 minutos

Datos horarios

Fecha y hora oficial Temperatura (ºC) Velocidad del viento (km/h) Dirección del viento Racha (km/h) Dirección de racha Precipitación (mm) Presión (hPa) Tendencia (hPa) Humedad (%)
2019-08-19 23:00:00 22.4 23 Noroeste 42 Noroeste 0 -- -- 49
2019-08-19 22:00:00 23.7 29 Noroeste 48 Noroeste 0 -- -- 40
2019-08-19 21:00:00 26.6 26 Noroeste 45 Noroeste 0 -- -- 37
2019-08-19 20:00:00 30.5 17 Noroeste 29 Oeste 0 -- -- 25
2019-08-19 19:00:00 32.6 18 Noroeste 32 Noroeste 0 -- -- 20
2019-08-19 18:00:00 33.5 14 Oeste 28 Oeste 0 -- -- 16
2019-08-19 17:00:00 33.5 12 Oeste 26 Oeste 0 -- -- 18
2019-08-19 16:00:00 32.9 10 Sudoeste 22 Noroeste 0 -- -- 22
2019-08-19 15:00:00 32.1 7 Oeste 17 Sudoeste 0 -- -- 27
2019-08-19 14:00:00 29.4 6 Oeste 19 Sur 0 -- -- 39
2019-08-19 13:00:00 26.7 9 Sudoeste 18 Sudoeste 0 -- -- 46
2019-08-19 12:00:00 24.4 4 Sur 13 Oeste 0 -- -- 51
2019-08-19 11:00:00 21.4 7 Noroeste 14 Oeste 0 -- -- 58
2019-08-19 10:00:00 18.7 6 Sudoeste 12 Sudoeste 0 -- -- 67
2019-08-19 09:00:00 16.5 5 Sudoeste 14 Oeste 0 -- -- 75
2019-08-19 08:00:00 15.1 8 Noroeste 16 Noroeste 0 -- -- 80
2019-08-19 07:00:00 15.8 10 Noroeste 22 Noroeste 0 -- -- 75
2019-08-19 06:00:00 16.2 5 Oeste 23 Oeste 0 -- -- 73
2019-08-19 05:00:00 17 15 Noroeste 24 Oeste 0 -- -- 71
2019-08-19 04:00:00 18 12 Noroeste 24 Noroeste 0 -- -- 70
2019-08-19 03:00:00 19.3 13 Noroeste 23 Noroeste 0 -- -- 67
2019-08-19 02:00:00 20.8 11 Noroeste 20 Noroeste 0 -- -- 68
2019-08-19 01:00:00 22.3 8 Noroeste 21 Sudoeste 0 -- -- 69
2019-08-19 00:00:00 23.3 11 Oeste 29 Oeste 0 -- -- 68
2019-08-18 23:00:00 24.7 17 Noroeste 32 Noroeste 0 -- -- 64
2019-08-18 22:00:00 27 16 Noroeste 35 Noroeste 0 -- -- 58
2019-08-18 21:00:00 30.1 19 Noroeste 40 Noroeste 0 -- -- 48
2019-08-18 20:00:00 31.7 19 Noroeste 30 Oeste 0 -- -- 40
2019-08-18 19:00:00 33.2 21 Noroeste 34 Oeste 0 -- -- 37
2019-08-18 18:00:00 34.1 18 Oeste 33 Oeste 0 -- -- 36
2019-08-18 17:00:00 34.6 19 Noroeste 36 Noroeste 0 -- -- 34
2019-08-18 16:00:00 33.9 17 Noroeste 29 Oeste 0 -- -- 31
2019-08-18 15:00:00 31 18 Oeste 32 Oeste 0 -- -- 38
2019-08-18 14:00:00 30.3 14 Oeste 27 Noroeste 0 -- -- 42
2019-08-18 13:00:00 29.8 12 Noroeste 24 Oeste 0 -- -- 44
2019-08-18 12:00:00 27.1 11 Oeste 23 Noroeste 0 -- -- 52
2019-08-18 11:00:00 24.4 8 Noroeste 23 Oeste 0 -- -- 62
2019-08-18 10:00:00 20.9 7 Oeste 15 Noroeste 0 -- -- 76
2019-08-18 09:00:00 18.3 5 Noroeste 9 Noroeste 0 -- -- 87
2019-08-18 08:00:00 17 3 Sudoeste 13 Oeste 0 -- -- 88
2019-08-18 07:00:00 17.1 5 Oeste 14 Oeste 0 -- -- 90
2019-08-18 06:00:00 17.8 3 Oeste 8 Sur 0 -- -- 81
2019-08-18 05:00:00 18.7 2 Sur 7 Sur 0 -- -- 78
2019-08-18 04:00:00 20 0 Calma 17 Noroeste 0 -- -- 73
2019-08-18 03:00:00 21 10 Noroeste 19 Oeste 0 -- -- 71
2019-08-18 02:00:00 21.9 6 Oeste 25 Oeste 0 -- -- 65
2019-08-18 01:00:00 23.2 15 Oeste 39 Noroeste 0 -- -- 61
2019-08-18 00:00:00 25.4 23 Noroeste 37 Noroeste 0 -- -- 54
2019-08-17 23:00:00 28.6 21 Noroeste 37 Noroeste 0 -- -- 46
2019-08-17 22:00:00 31.4 13 Oeste 26 Noroeste 0 -- -- 30
2019-08-17 21:00:00 34.6 11 Oeste 26 Oeste 0 -- -- 23
2019-08-17 20:00:00 36.3 12 Oeste 24 Sudoeste 0 -- -- 20
2019-08-17 19:00:00 38 14 Sur 26 Sur 0 -- -- 17
2019-08-17 18:00:00 38.4 14 Sudoeste 27 Sudoeste 0 -- -- 17
2019-08-17 17:00:00 37.7 12 Sudoeste 23 Sudoeste 0 -- -- 16
2019-08-17 16:00:00 36.5 12 Sudoeste 25 Sudoeste 0 -- -- 20
2019-08-17 15:00:00 34.3 11 Sudoeste 18 Sudoeste 0 -- -- 24
2019-08-17 14:00:00 31.4 9 Sudoeste 18 Oeste 0 -- -- 35
2019-08-17 13:00:00 28.8 8 Sudoeste 16 Sur 0 -- -- 44
2019-08-17 12:00:00 26.2 5 Sur 10 Sur 0 -- -- 52
2019-08-17 11:00:00 23.8 2 Nordeste 7 Norte 0 -- -- 61
2019-08-17 10:00:00 20.5 2 Noroeste 8 Norte 0 -- -- 72
2019-08-17 09:00:00 17.8 4 Noroeste 6 Oeste 0 -- -- 83
2019-08-17 08:00:00 15.9 2 Oeste 9 Noroeste 0 -- -- 90
2019-08-17 07:00:00 15.6 5 Noroeste 9 Noroeste 0 -- -- 80
2019-08-17 06:00:00 17.4 3 Sudoeste 8 Oeste 0 -- -- 76
2019-08-17 05:00:00 18.6 5 Noroeste 10 Oeste 0 -- -- 74
2019-08-17 04:00:00 19.6 3 Oeste 12 Oeste 0 -- -- 66
2019-08-17 03:00:00 21 6 Oeste 14 Oeste 0 -- -- 62
2019-08-17 02:00:00 22.5 9 Noroeste 24 Oeste 0 -- -- 55
2019-08-17 01:00:00 24.1 15 Noroeste 24 Noroeste 0 -- -- 49
2019-08-17 00:00:00 26.1 4 Oeste 22 Oeste 0 -- -- 45
2019-08-16 23:00:00 27.9 9 Oeste 21 Oeste 0 -- -- 39
2019-08-16 22:00:00 29.9 12 Oeste 25 Oeste 0 -- -- 33
2019-08-16 21:00:00 33.3 18 Noroeste 31 Noroeste 0 -- -- 29
2019-08-16 20:00:00 35.6 22 Noroeste 35 Noroeste 0 -- -- 25
2019-08-16 19:00:00 38.3 18 Noroeste 29 Oeste 0 -- -- 22
2019-08-16 18:00:00 39 13 Oeste 27 Oeste 0 -- -- 23
2019-08-16 17:00:00 38.9 13 Sudoeste 23 Sudoeste 0 -- -- 23
2019-08-16 16:00:00 38.1 7 Sudoeste 22 Sudoeste 0 -- -- 25
2019-08-16 15:00:00 36.3 8 Oeste 20 Sudoeste 0 -- -- 32
2019-08-16 14:00:00 34.5 9 Sudoeste 15 Sur 0 -- -- 36
2019-08-16 13:00:00 32.3 8 Sudoeste 15 Sur 0 -- -- 40
2019-08-16 12:00:00 29.3 6 Sudoeste 13 Sudoeste 0 -- -- 46
2019-08-16 11:00:00 26 6 Sudoeste 11 Sudoeste 0 -- -- 55
2019-08-16 10:00:00 23.3 5 Sudoeste 9 Oeste 0 -- -- 61
2019-08-16 09:00:00 20.6 3 Sur 9 Sur 0 -- -- 70
2019-08-16 08:00:00 19.2 2 Sudoeste 6 Oeste 0 -- -- 73
2019-08-16 07:00:00 19.9 3 Sur 6 Sur 0 -- -- 73
2019-08-16 06:00:00 20.8 3 Sur 13 Noroeste 0 -- -- 70
2019-08-16 05:00:00 21.5 6 Oeste 11 Oeste 0 -- -- 65
2019-08-16 04:00:00 22.6 5 Oeste 13 Noroeste 0 -- -- 63
2019-08-16 03:00:00 23.4 8 Oeste 14 Noroeste 0 -- -- 60
2019-08-16 02:00:00 24.3 4 Oeste 26 Oeste 0 -- -- 57
2019-08-16 01:00:00 25.8 8 Noroeste 27 Oeste 0 -- -- 51
2019-08-16 00:00:00 27.2 10 Oeste 26 Noroeste 0 -- -- 47
2019-08-15 23:00:00 29.4 16 Noroeste 31 Noroeste 0 -- -- 39
2019-08-15 22:00:00 31.8 20 Noroeste 35 Noroeste 0 -- -- 34
2019-08-15 21:00:00 35.1 22 Noroeste 34 Noroeste 0 -- -- 27
2019-08-15 20:00:00 37.6 10 Oeste 20 Oeste 0 -- -- 21
2019-08-15 19:00:00 39.5 6 Sudoeste 21 Sudoeste 0 -- -- 21
2019-08-15 18:00:00 39.7 7 Oeste 26 Sudoeste 0 -- -- 20
2019-08-15 17:00:00 40.2 9 Oeste 22 Norte 0 -- -- 22
2019-08-15 16:00:00 40.2 12 Norte 21 Noroeste 0 -- -- 22
2019-08-15 15:00:00 38.7 10 Noroeste 23 Noroeste 0 -- -- 26
2019-08-15 14:00:00 35.9 8 Sudeste 15 Sur 0 -- -- 34
2019-08-15 13:00:00 33.3 9 Sur 15 Sur 0 -- -- 42
2019-08-15 12:00:00 30.1 8 Sur 13 Sudeste 0 -- -- 50
2019-08-15 11:00:00 27 3 Sudoeste 9 Oeste 0 -- -- 58
2019-08-15 10:00:00 23.3 4 Sudoeste 8 Oeste 0 -- -- 69
2019-08-15 09:00:00 20.4 4 Sudoeste 6 Sudoeste 0 -- -- 79
2019-08-15 08:00:00 18.6 2 Oeste 4 Noroeste 0 -- -- 77
2019-08-15 07:00:00 19.2 0 Calma 6 Sudoeste 0 -- -- 78
2019-08-15 06:00:00 20.4 4 Sudoeste 8 Noroeste 0 -- -- 75
2019-08-15 05:00:00 21.2 5 Noroeste 18 Oeste 0 -- -- 74
2019-08-15 04:00:00 22 9 Noroeste 17 Noroeste 0 -- -- 71
2019-08-15 03:00:00 22.7 6 Noroeste 19 Oeste 0 -- -- 68
2019-08-15 02:00:00 23.9 9 Noroeste 23 Noroeste 0 -- -- 65
2019-08-15 01:00:00 25.3 16 Noroeste 32 Noroeste 0 -- -- 59
2019-08-15 00:00:00 27.1 17 Noroeste 35 Noroeste 0 -- -- 54
2019-08-14 23:00:00 28.9 17 Noroeste 31 Noroeste 0 -- -- 45
2019-08-14 22:00:00 30.9 15 Noroeste 27 Noroeste 0 -- -- 34
2019-08-14 21:00:00 34.1 12 Oeste 22 Oeste 0 -- -- 23
2019-08-14 20:00:00 35.9 12 Noroeste 19 Noroeste 0 -- -- 20
2019-08-14 19:00:00 37.9 8 Noroeste 21 Oeste 0 -- -- 18
2019-08-14 18:00:00 38.9 8 Noroeste 25 Oeste 0 -- -- 17
2019-08-14 17:00:00 39.4 11 Norte 27 Noroeste 0 -- -- 17
2019-08-14 16:00:00 38.9 11 Norte 20 Noroeste 0 -- -- 16
2019-08-14 15:00:00 36.7 7 Norte 19 Noroeste 0 -- -- 19
2019-08-14 14:00:00 34.9 5 Sudeste 14 Sur 0 -- -- 22
2019-08-14 13:00:00 33.1 4 Sudoeste 9 Sur 0 -- -- 26
2019-08-14 12:00:00 30.1 4 Nordeste 9 Norte 0 -- -- 31
2019-08-14 11:00:00 25.8 2 Nordeste 12 Noroeste 0 -- -- 38
2019-08-14 10:00:00 21.3 9 Noroeste 14 Noroeste 0 -- -- 52
2019-08-14 09:00:00 17.6 7 Noroeste 10 Noroeste 0 -- -- 61
2019-08-14 08:00:00 15 4 Noroeste 11 Noroeste 0 -- -- 71
2019-08-14 07:00:00 15.1 5 Noroeste 9 Noroeste 0 -- -- 68
2019-08-14 06:00:00 16.6 5 Noroeste 10 Noroeste 0 -- -- 63
2019-08-14 05:00:00 17 5 Noroeste 10 Noroeste 0 -- -- 60
2019-08-14 04:00:00 18.6 5 Noroeste 16 Noroeste 0 -- -- 57
2019-08-14 03:00:00 20.2 6 Noroeste 14 Noroeste 0 -- -- 54
2019-08-14 02:00:00 21.7 9 Noroeste 26 Noroeste 0 -- -- 49
2019-08-14 01:00:00 23.4 12 Noroeste 27 Noroeste 0 -- -- 45
2019-08-14 00:00:00 25.2 17 Noroeste 30 Noroeste 0 -- -- 41
2019-08-13 23:00:00 27 17 Noroeste 31 Oeste 0 -- -- 39
2019-08-13 22:00:00 28.8 15 Noroeste 23 Oeste 0 -- -- 32
2019-08-13 21:00:00 32.5 0 Calma 9 Sudoeste 0 -- -- 20
2019-08-13 20:00:00 33.7 5 Sudeste 13 Sur 0 -- -- 18
2019-08-13 19:00:00 35.5 8 Sur 17 Sudoeste 0 -- -- 16
2019-08-13 18:00:00 35.5 7 Sur 17 Sudeste 0 -- -- 16
2019-08-13 17:00:00 35.7 8 Noroeste 15 Noroeste 0 -- -- 16
2019-08-13 16:00:00 34.8 5 Este 15 Nordeste 0 -- -- 16
2019-08-13 15:00:00 33.9 6 Noroeste 14 Oeste 0 -- -- 19
2019-08-13 14:00:00 32.2 6 Nordeste 14 Este 0 -- -- 20
2019-08-13 13:00:00 31.1 7 Nordeste 15 Nordeste 0 -- -- 24
2019-08-13 12:00:00 28.8 6 Nordeste 12 Nordeste 0 -- -- 26
2019-08-13 11:00:00 25.6 7 Nordeste 15 Norte 0 -- -- 31
2019-08-13 10:00:00 20.6 8 Noroeste 13 Noroeste 0 -- -- 50
2019-08-13 09:00:00 15.8 5 Noroeste 10 Oeste 0 -- -- 70
2019-08-13 08:00:00 13.4 3 Noroeste 8 Noroeste 0 -- -- 74
2019-08-13 07:00:00 14.1 5 Noroeste 9 Noroeste 0 -- -- 73
2019-08-13 06:00:00 14.7 5 Noroeste 12 Noroeste 0 -- -- 71
2019-08-13 05:00:00 15.9 4 Noroeste 14 Noroeste 0 -- -- 67
2019-08-13 04:00:00 17.2 5 Noroeste 13 Noroeste 0 -- -- 61
2019-08-13 03:00:00 18.8 8 Noroeste 22 Noroeste 0 -- -- 55
2019-08-13 02:00:00 21 13 Noroeste 24 Noroeste 0 -- -- 50
2019-08-13 01:00:00 21.8 15 Noroeste 28 Noroeste 0 -- -- 47
2019-08-13 00:00:00 20.1 11 Noroeste 18 Oeste 0 -- -- 32
2019-08-12 23:00:00 21.4 6 Noroeste 11 Norte 0 -- -- 25
2019-08-12 22:00:00 24.8 8 Norte 15 Norte 0 -- -- 20
2019-08-12 21:00:00 29.1 12 Norte 28 Nordeste 0 -- -- 17
2019-08-12 20:00:00 30.6 17 Norte 29 Nordeste 0 -- -- 16
2019-08-12 19:00:00 31.9 19 Norte 28 Norte 0 -- -- 16
2019-08-12 18:00:00 32.5 18 Norte 33 Norte 0 -- -- 18
2019-08-12 17:00:00 33.4 14 Norte 30 Noroeste 0 -- -- 18
2019-08-12 16:00:00 32.4 12 Norte 36 Noroeste 0 -- -- 20
2019-08-12 15:00:00 32.2 18 Norte 36 Norte 0 -- -- 21
2019-08-12 14:00:00 30.8 15 Norte 32 Norte 0 -- -- 22
2019-08-12 13:00:00 29.1 17 Norte 35 Norte 0 -- -- 25
2019-08-12 12:00:00 26.7 19 Norte 31 Norte 0 -- -- 32
2019-08-12 11:00:00 23.9 15 Norte 28 Norte 0 -- -- 40
2019-08-12 10:00:00 19.7 8 Noroeste 15 Noroeste 0 -- -- 53
2019-08-12 09:00:00 16 9 Noroeste 15 Noroeste 0 -- -- 65
2019-08-12 08:00:00 13.1 6 Norte 15 Noroeste 0 -- -- 74
2019-08-12 07:00:00 13.4 9 Noroeste 17 Noroeste 0 -- -- 74
2019-08-12 06:00:00 14.4 9 Noroeste 14 Noroeste 0 -- -- 69
2019-08-12 05:00:00 15.1 4 Norte 18 Noroeste 0 -- -- 66
2019-08-12 04:00:00 15.5 7 Noroeste 15 Noroeste 0 -- -- 65
2019-08-12 03:00:00 17.2 9 Noroeste 23 Noroeste 0 -- -- 61
2019-08-12 02:00:00 18.2 15 Noroeste 27 Noroeste 0 -- -- 57
2019-08-12 01:00:00 19.3 17 Noroeste 36 Noroeste 0 -- -- 52
2019-08-12 00:00:00 20.6 19 Noroeste 33 Noroeste 0 -- -- 47
2019-08-11 23:00:00 22.1 19 Noroeste 34 Noroeste 0 -- -- 42
2019-08-11 22:00:00 23.9 18 Noroeste 33 Oeste 0 -- -- 36
2019-08-11 21:00:00 26.3 17 Noroeste 35 Noroeste 0 -- -- 32
2019-08-11 20:00:00 27.7 20 Noroeste 32 Noroeste 0 -- -- 30
2019-08-11 19:00:00 29.2 19 Oeste 33 Norte 0 -- -- 28
2019-08-11 18:00:00 30.4 15 Noroeste 32 Noroeste 0 -- -- 26
2019-08-11 17:00:00 30.2 15 Noroeste 32 Noroeste 0 -- -- 26
2019-08-11 16:00:00 30.5 17 Noroeste 33 Noroeste 0 -- -- 26
2019-08-11 15:00:00 29.9 14 Noroeste 30 Noroeste 0 -- -- 27
2019-08-11 14:00:00 27.8 14 Noroeste 33 Oeste 0 -- -- 30
2019-08-11 13:00:00 26.3 14 Noroeste 33 Oeste 0 -- -- 34
2019-08-11 12:00:00 23.8 17 Noroeste 30 Oeste 0 -- -- 42
2019-08-11 11:00:00 21.7 19 Noroeste 30 Noroeste 0 -- -- 50
2019-08-11 10:00:00 18.2 18 Noroeste 30 Noroeste 0 -- -- 67
2019-08-11 09:00:00 16.4 15 Noroeste 28 Oeste 0 -- -- 77
2019-08-11 08:00:00 15.4 9 Oeste 19 Oeste 0 -- -- 81
2019-08-11 07:00:00 15.9 11 Noroeste 23 Oeste 0 -- -- 79
2019-08-11 06:00:00 16.6 8 Oeste 25 Oeste 0 -- -- 76
2019-08-11 05:00:00 17 14 Oeste 37 Noroeste 0 -- -- 73
2019-08-11 04:00:00 19 15 Oeste 33 Noroeste 0 -- -- 62
2019-08-11 03:00:00 19.4 8 Noroeste 24 Oeste 0 -- -- 60
2019-08-11 02:00:00 19.9 11 Oeste 30 Oeste 0 -- -- 56
2019-08-11 01:00:00 20.6 15 Oeste 30 Noroeste 0 -- -- 54
2019-08-11 00:00:00 21.7 9 Oeste 50 Oeste -- -- -- 52
2019-08-10 23:00:00 23.2 23 Noroeste 45 Oeste 0 -- -- 51
2019-08-10 22:00:00 25.7 23 Noroeste 39 Noroeste 0 -- -- 44
2019-08-10 21:00:00 27.1 19 Noroeste 33 Oeste 0 -- -- 37
2019-08-10 20:00:00 28.9 19 Noroeste 32 Oeste 0 -- -- 34
2019-08-10 19:00:00 31.3 20 Noroeste 33 Noroeste 0 -- -- 29
2019-08-10 18:00:00 32.5 12 Oeste 23 Oeste 0 -- -- 23
2019-08-10 17:00:00 32 8 Oeste 19 Oeste 0 -- -- 25
2019-08-10 16:00:00 31.8 9 Oeste 20 Noroeste 0 -- -- 24
2019-08-10 15:00:00 30.2 11 Oeste 22 Oeste 0 -- -- 25
2019-08-10 14:00:00 30.1 9 Oeste 25 Oeste 0 -- -- 30
2019-08-10 13:00:00 28.3 9 Noroeste 23 Oeste 0 -- -- 35
2019-08-10 12:00:00 25.6 6 Noroeste 14 Noroeste 0 -- -- 45
2019-08-10 11:00:00 22.4 6 Noroeste 14 Oeste 0 -- -- 62
2019-08-10 10:00:00 19.2 9 Oeste 16 Oeste 0 -- -- 75
2019-08-10 09:00:00 17.9 6 Noroeste 10 Noroeste 0 -- -- 81
2019-08-10 08:00:00 15.2 3 Norte 6 Norte 0 -- -- 88
2019-08-10 07:00:00 16.6 0 Calma 11 Noroeste 0 -- -- 85
2019-08-10 06:00:00 17 5 Noroeste 9 Noroeste 0 -- -- 83
2019-08-10 05:00:00 17.5 3 Norte 12 Noroeste 0 -- -- 80
2019-08-10 04:00:00 18.7 8 Noroeste 13 Noroeste 0 -- -- 75
2019-08-10 03:00:00 19.5 5 Noroeste 15 Noroeste 0 -- -- 72
2019-08-10 02:00:00 20.3 8 Noroeste 19 Noroeste 0 -- -- 68
2019-08-10 01:00:00 21.2 9 Oeste 16 Oeste 0 -- -- 66
2019-08-10 00:00:00 21.7 3 Oeste 11 Oeste 0 -- -- 63
2019-08-09 23:00:00 22.7 7 Oeste 16 Noroeste 0 -- -- 59
2019-08-09 22:00:00 24.2 10 Noroeste 20 Oeste 0 -- -- 52
2019-08-09 21:00:00 26 13 Noroeste 23 Oeste 0 -- -- 44
2019-08-09 20:00:00 26.2 12 Oeste 22 Oeste 0 -- -- 52
2019-08-09 19:00:00 27 13 Oeste 23 Noroeste 0 -- -- 55
2019-08-09 18:00:00 27.4 14 Noroeste 31 Noroeste 0 -- -- 52
2019-08-09 17:00:00 27.9 13 Noroeste 30 Noroeste 0 -- -- 51
2019-08-09 16:00:00 27.6 18 Noroeste 32 Noroeste 0 -- -- 57
2019-08-09 15:00:00 24.6 17 Oeste 32 Oeste 0 -- -- 68
2019-08-09 14:00:00 22.8 19 Noroeste 32 Oeste 0.4 -- -- 86
2019-08-09 13:00:00 24.3 14 Noroeste 27 Noroeste 0.2 -- -- 82
2019-08-09 12:00:00 24.9 14 Sudoeste 26 Sudoeste 0 -- -- 78
2019-08-09 11:00:00 24 13 Sudoeste 24 Sudoeste 0 -- -- 80
2019-08-09 10:00:00 23.3 9 Sudoeste 23 Sudoeste 0 -- -- 82
2019-08-09 09:00:00 23.1 8 Sudoeste 19 Sudoeste 0 -- -- 82
2019-08-09 08:00:00 22.4 8 Sudoeste 19 Sur 0 -- -- 83
2019-08-09 07:00:00 22.8 12 Sudoeste 26 Sudoeste 0 -- -- 81
2019-08-09 06:00:00 22.9 10 Sudoeste 20 Sur 0 -- -- 80
2019-08-09 05:00:00 22.6 4 Sudoeste 13 Sur 0 -- -- 79
2019-08-09 04:00:00 22.6 8 Sudoeste 21 Sudoeste 0 -- -- 79
2019-08-09 03:00:00 22.7 10 Sudoeste 18 Oeste 0 -- -- 78
2019-08-09 02:00:00 22.9 8 Sudoeste 17 Sudoeste 0 -- -- 75
2019-08-09 01:00:00 23.8 6 Sudoeste 15 Oeste 0 -- -- 72
2019-08-09 00:00:00 24.6 9 Oeste 21 Oeste 0 -- -- 70
2019-08-08 23:00:00 26.1 9 Oeste 32 Oeste 0 -- -- 63
2019-08-08 22:00:00 28.6 15 Oeste 29 Oeste 0 -- -- 53
2019-08-08 21:00:00 31.2 15 Oeste 30 Oeste 0 -- -- 45
2019-08-08 20:00:00 32.6 13 Sudoeste 33 Sudoeste 0 -- -- 40
2019-08-08 19:00:00 33.9 17 Oeste 33 Sudoeste 0 -- -- 37
2019-08-08 18:00:00 34.8 19 Sudoeste 35 Sudoeste 0 -- -- 33
2019-08-08 17:00:00 34.6 15 Sur 31 Sudoeste 0 -- -- 37
2019-08-08 16:00:00 33.6 18 Sudoeste 32 Sur 0 -- -- 38
2019-08-08 15:00:00 32.6 12 Sudoeste 24 Sudoeste 0 -- -- 41
2019-08-08 14:00:00 31.7 8 Sudoeste 22 Sudoeste 0 -- -- 46
2019-08-08 13:00:00 29.6 10 Sudoeste 21 Sur 0 -- -- 51
2019-08-08 12:00:00 27.6 6 Sur 15 Sudeste 0 -- -- 59
2019-08-08 11:00:00 25 5 Sur 13 Sur 0 -- -- 64
2019-08-08 10:00:00 22.6 5 Sur 11 Sur 0 -- -- 72
2019-08-08 09:00:00 21.1 5 Sudoeste 10 Oeste 0 -- -- 73
2019-08-08 08:00:00 18.9 4 Sudoeste 6 Sudoeste 0 -- -- 82
2019-08-08 07:00:00 19.1 2 Sudoeste 6 Oeste 0 -- -- 79
2019-08-08 06:00:00 19.4 3 Sudoeste 8 Noroeste 0 -- -- 78
2019-08-08 05:00:00 20.5 6 Noroeste 10 Noroeste 0 -- -- 74
2019-08-08 04:00:00 21.9 7 Noroeste 15 Oeste 0 -- -- 71
2019-08-08 03:00:00 22.7 7 Noroeste 13 Noroeste 0 -- -- 70
2019-08-08 02:00:00 22.6 0 Calma 9 Oeste 0 -- -- 64
2019-08-08 01:00:00 23.4 7 Oeste 12 Noroeste 0 -- -- 63
2019-08-08 00:00:00 24.4 5 Sudoeste 9 Sudoeste 0 -- -- 57
2019-08-07 23:00:00 25.2 4 Sur 6 Sur 0 -- -- 55
2019-08-07 22:00:00 26.7 5 Sur 9 Sur 0 -- -- 51
2019-08-07 21:00:00 28.1 5 Sur 14 Sur 0 -- -- 47
2019-08-07 20:00:00 28.5 8 Sudoeste 18 Sur 0 -- -- 45
2019-08-07 19:00:00 28.6 7 Sur 17 Sur 0 -- -- 46
2019-08-07 18:00:00 28.2 6 Sudoeste 14 Noroeste 0 -- -- 48
2019-08-07 17:00:00 27.6 5 Oeste 14 Oeste 0 -- -- 50
2019-08-07 16:00:00 28.1 8 Noroeste 19 Noroeste 0 -- -- 49
2019-08-07 15:00:00 26.8 8 Noroeste 16 Norte 0 -- -- 51
2019-08-07 14:00:00 26.9 6 Nordeste 18 Oeste 0 -- -- 51
2019-08-07 13:00:00 24.5 12 Noroeste 22 Noroeste 0 -- -- 63
2019-08-07 12:00:00 23.5 17 Noroeste 25 Oeste 0 -- -- 69
2019-08-07 11:00:00 22.9 8 Oeste 17 Oeste 0 -- -- 70
2019-08-07 10:00:00 21.3 5 Sudoeste 15 Oeste 0 -- -- 78
2019-08-07 09:00:00 20.1 5 Sudoeste 12 Sudoeste 0 -- -- 83
2019-08-07 08:00:00 19.9 6 Sudoeste 14 Oeste 0 -- -- 81
2019-08-07 07:00:00 20 6 Oeste 12 Sudoeste 0 -- -- 80
2019-08-07 06:00:00 20 7 Sudoeste 13 Oeste 0 -- -- 80
2019-08-07 05:00:00 20.4 5 Sudoeste 18 Oeste 0 -- -- 77
2019-08-07 04:00:00 20.9 7 Sudoeste 28 Oeste 0 -- -- 75
2019-08-07 03:00:00 21.8 13 Oeste 22 Oeste 0 -- -- 70
2019-08-07 02:00:00 22.7 5 Sudoeste 17 Sudoeste 0 -- -- 68
2019-08-07 01:00:00 23.1 11 Oeste 27 Oeste 0 -- -- 66
2019-08-07 00:00:00 24.2 17 Oeste 30 Oeste 0 -- -- 62
2019-08-06 23:00:00 25.5 14 Noroeste 28 Oeste 0 -- -- 57
2019-08-06 22:00:00 27.1 16 Noroeste 30 Noroeste 0 -- -- 51
2019-08-06 21:00:00 29.7 18 Oeste 30 Noroeste 0 -- -- 44
2019-08-06 20:00:00 31.8 17 Noroeste 34 Noroeste 0 -- -- 37
2019-08-06 19:00:00 34.3 17 Oeste 29 Oeste 0 -- -- 33
2019-08-06 18:00:00 34.6 14 Oeste 28 Oeste 0 -- -- 31
2019-08-06 17:00:00 35.5 15 Oeste 30 Oeste 0 -- -- 30
2019-08-06 16:00:00 34.7 16 Oeste 26 Oeste 0 -- -- 33
2019-08-06 15:00:00 33.5 10 Oeste 24 Oeste 0 -- -- 36
2019-08-06 14:00:00 31.2 8 Sudoeste 21 Oeste 0 -- -- 43
2019-08-06 13:00:00 28.6 10 Sudoeste 22 Sudoeste 0 -- -- 50
2019-08-06 12:00:00 25.9 8 Oeste 18 Sudoeste 0 -- -- 58
2019-08-06 11:00:00 23.4 8 Oeste 17 Sudoeste 0 -- -- 68
2019-08-06 10:00:00 21.1 6 Oeste 14 Oeste 0 -- -- 76
2019-08-06 09:00:00 19.3 6 Sudoeste 10 Sudoeste 0 -- -- 84
2019-08-06 08:00:00 17.8 0 Calma 9 Sur 0 -- -- 88
2019-08-06 07:00:00 18.3 5 Sur 17 Oeste 0 -- -- 85
2019-08-06 06:00:00 18.4 9 Sudoeste 16 Oeste 0 -- -- 85
2019-08-06 05:00:00 19.1 9 Oeste 18 Sudoeste 0 -- -- 81
2019-08-06 04:00:00 19.9 7 Oeste 18 Oeste 0 -- -- 77
2019-08-06 03:00:00 20.6 8 Noroeste 17 Noroeste 0 -- -- 72
2019-08-06 02:00:00 21.9 10 Noroeste 22 Oeste 0 -- -- 65
2019-08-06 01:00:00 23.3 6 Oeste 24 Oeste 0 -- -- 54
2019-08-06 00:00:00 24.8 12 Oeste 26 Noroeste 0 -- -- 48
2019-08-05 23:00:00 27 15 Noroeste 27 Noroeste 0 -- -- 42
2019-08-05 22:00:00 29.4 15 Noroeste 27 Oeste 0 -- -- 34
2019-08-05 21:00:00 32.2 17 Noroeste 29 Oeste 0 -- -- 27
2019-08-05 20:00:00 34.2 16 Noroeste 24 Noroeste 0 -- -- 25
2019-08-05 19:00:00 36.2 14 Noroeste 27 Oeste 0 -- -- 22
2019-08-05 18:00:00 37 10 Noroeste 24 Oeste 0 -- -- 22
2019-08-05 17:00:00 36 11 Sudoeste 24 Sudoeste 0 -- -- 24
2019-08-05 16:00:00 35.2 5 Sudoeste 17 Noroeste 0 -- -- 28
2019-08-05 15:00:00 32.6 7 Oeste 17 Sur 0 -- -- 33
2019-08-05 14:00:00 30.1 6 Oeste 15 Sur 0 -- -- 37
2019-08-05 13:00:00 27.2 7 Sudoeste 17 Sur 0 -- -- 46
2019-08-05 12:00:00 25 5 Sur 12 Sudoeste 0 -- -- 53
2019-08-05 11:00:00 22.2 4 Sudoeste 10 Noroeste 0 -- -- 62
2019-08-05 10:00:00 19.1 5 Sudoeste 12 Sudoeste 0 -- -- 72
2019-08-05 09:00:00 16.7 4 Sudoeste 7 Sudoeste 0 -- -- 80
2019-08-05 08:00:00 15 3 Sur 10 Sudoeste 0 -- -- 85
2019-08-05 07:00:00 15 4 Oeste 8 Oeste 0 -- -- 84
2019-08-05 06:00:00 15.9 5 Oeste 9 Oeste 0 -- -- 80
2019-08-05 05:00:00 16.7 6 Oeste 12 Noroeste 0 -- -- 78
2019-08-05 04:00:00 17.6 8 Oeste 15 Oeste 0 -- -- 74
2019-08-05 03:00:00 19 9 Noroeste 23 Noroeste 0 -- -- 69
2019-08-05 02:00:00 20.1 13 Noroeste 21 Noroeste 0 -- -- 66
2019-08-05 01:00:00 21.5 12 Oeste 30 Oeste 0 -- -- 62
2019-08-05 00:00:00 23.7 17 Noroeste 30 Noroeste 0 -- -- 54
2019-08-04 23:00:00 25.8 17 Noroeste 30 Noroeste 0 -- -- 46
2019-08-04 22:00:00 27.7 18 Noroeste 33 Noroeste 0 -- -- 44
2019-08-04 21:00:00 30.4 19 Noroeste 37 Noroeste 0 -- -- 40
2019-08-04 20:00:00 33.1 16 Oeste 34 Oeste 0 -- -- 32
2019-08-04 19:00:00 35.4 19 Noroeste 34 Noroeste 0 -- -- 29
2019-08-04 18:00:00 36.3 15 Oeste 27 Oeste 0 -- -- 26
2019-08-04 17:00:00 36.5 14 Oeste 30 Oeste 0 -- -- 25
2019-08-04 16:00:00 35.9 12 Oeste 26 Sudoeste 0 -- -- 27
2019-08-04 15:00:00 34.8 11 Noroeste 30 Sudoeste 0 -- -- 31
2019-08-04 14:00:00 31 7 Sudoeste 18 Sudoeste 0 -- -- 43
2019-08-04 13:00:00 28.4 5 Sudoeste 16 Sur 0 -- -- 51
2019-08-04 12:00:00 25.6 5 Sur 15 Sur 0 -- -- 59
2019-08-04 11:00:00 23 4 Sudoeste 14 Sudoeste 0 -- -- 66
2019-08-04 10:00:00 20.7 6 Oeste 14 Sudoeste 0 -- -- 76
2019-08-04 09:00:00 18.2 3 Oeste 7 Oeste 0 -- -- 86
2019-08-04 08:00:00 17.3 4 Oeste 12 Sudoeste 0 -- -- 90
2019-08-04 07:00:00 17.5 5 Sudoeste 11 Sudoeste 0 -- -- 88
2019-08-04 06:00:00 18.6 5 Sudoeste 12 Oeste 0 -- -- 84
2019-08-04 05:00:00 19.1 8 Oeste 13 Sudoeste 0 -- -- 82
2019-08-04 04:00:00 19.8 6 Oeste 19 Oeste 0 -- -- 78
2019-08-04 03:00:00 20.4 7 Oeste 26 Oeste 0 -- -- 75
2019-08-04 02:00:00 21.8 12 Oeste 23 Oeste 0 -- -- 69
2019-08-04 01:00:00 23.1 10 Oeste 24 Noroeste 0 -- -- 63
2019-08-04 00:00:00 24.7 18 Noroeste 39 Oeste 0 -- -- 57
2019-08-03 23:00:00 26.3 22 Noroeste 42 Oeste 0 -- -- 53
2019-08-03 22:00:00 28.9 20 Noroeste 37 Oeste 0 -- -- 44
2019-08-03 21:00:00 32.7 20 Noroeste 33 Oeste 0 -- -- 33
2019-08-03 20:00:00 35 11 Oeste 22 Noroeste 0 -- -- 22
2019-08-03 19:00:00 36.5 10 Oeste 22 Sudoeste 0 -- -- 21
2019-08-03 18:00:00 36.6 11 Sur 21 Sur 0 -- -- 24
2019-08-03 17:00:00 36 11 Sur 23 Sur 0 -- -- 22
2019-08-03 16:00:00 34.7 12 Sur 23 Sur 0 -- -- 24
2019-08-03 15:00:00 33.2 13 Sudoeste 23 Sudoeste 0 -- -- 26
2019-08-03 14:00:00 30.5 10 Sudoeste 20 Sur 0 -- -- 37
2019-08-03 13:00:00 27.9 9 Sudoeste 21 Sur 0 -- -- 44
2019-08-03 12:00:00 25.3 8 Sudoeste 18 Sudoeste 0 -- -- 52
2019-08-03 11:00:00 22.5 6 Sudoeste 13 Oeste 0 -- -- 60
2019-08-03 10:00:00 20 2 Sur 8 Sur 0 -- -- 67
2019-08-03 09:00:00 17.7 3 Sudoeste 6 Oeste 0 -- -- 76
2019-08-03 08:00:00 15.1 3 Noroeste 5 Noroeste 0 -- -- 85
2019-08-03 07:00:00 15.2 3 Noroeste 5 Noroeste 0 -- -- 82
2019-08-03 06:00:00 16.2 3 Norte 8 Sudoeste 0 -- -- 78
2019-08-03 05:00:00 17.6 3 Sudoeste 6 Oeste 0 -- -- 77
2019-08-03 04:00:00 18.7 4 Noroeste 10 Oeste 0 -- -- 71
2019-08-03 03:00:00 20.5 5 Oeste 20 Oeste 0 -- -- 65
2019-08-03 02:00:00 21.8 6 Oeste 18 Oeste 0 -- -- 62
2019-08-03 01:00:00 23.5 9 Oeste 32 Oeste 0 -- -- 58
2019-08-03 00:00:00 25.5 19 Noroeste 39 Noroeste 0 -- -- 54
2019-08-02 23:00:00 27.9 20 Noroeste 34 Oeste 0 -- -- 47
2019-08-02 22:00:00 30.1 14 Noroeste 24 Oeste 0 -- -- 38
2019-08-02 21:00:00 33.4 6 Sudoeste 14 Sur 0 -- -- 26
2019-08-02 20:00:00 34.5 7 Sur 16 Sur 0 -- -- 23
2019-08-02 19:00:00 36 5 Sudoeste 19 Noroeste 0 -- -- 22
2019-08-02 18:00:00 36.8 6 Noroeste 19 Noroeste 0 -- -- 21
2019-08-02 17:00:00 36.3 5 Norte 19 Oeste 0 -- -- 23
2019-08-02 16:00:00 34.5 6 Sudoeste 16 Sudoeste 0 -- -- 27
2019-08-02 15:00:00 31.6 8 Sudoeste 17 Sudoeste 0 -- -- 35
2019-08-02 14:00:00 29.2 5 Sudoeste 15 Sudoeste 0 -- -- 40
2019-08-02 13:00:00 26.8 6 Sudoeste 14 Sudoeste 0 -- -- 45
2019-08-02 12:00:00 23.6 5 Sudoeste 13 Oeste 0 -- -- 55
2019-08-02 11:00:00 21.2 7 Sudoeste 13 Sudoeste 0 -- -- 64
2019-08-02 10:00:00 19.1 3 Oeste 8 Sudoeste 0 -- -- 73
2019-08-02 09:00:00 16.8 3 Sur 6 Sudoeste 0 -- -- 82
2019-08-02 08:00:00 15.1 2 Sudoeste 8 Oeste 0 -- -- 88
2019-08-02 07:00:00 15.5 4 Sudoeste 11 Sudoeste 0 -- -- 86
2019-08-02 06:00:00 16.1 6 Sudoeste 12 Oeste 0 -- -- 82
2019-08-02 05:00:00 16.8 5 Sudoeste 20 Oeste 0 -- -- 80
2019-08-02 04:00:00 17.2 13 Oeste 23 Oeste 0 -- -- 78
2019-08-02 03:00:00 18.2 11 Oeste 25 Oeste 0 -- -- 72
2019-08-02 02:00:00 19.7 8 Oeste 21 Oeste 0 -- -- 61
2019-08-02 01:00:00 21.3 12 Oeste 26 Oeste 0 -- -- 53
2019-08-02 00:00:00 23.2 15 Noroeste 33 Noroeste 0 -- -- 48
2019-08-01 23:00:00 25.9 18 Noroeste 32 Noroeste 0 -- -- 38
2019-08-01 22:00:00 28.2 18 Noroeste 31 Noroeste 0 -- -- 32
2019-08-01 21:00:00 31 18 Noroeste 32 Noroeste 0 -- -- 28
2019-08-01 20:00:00 33.2 18 Noroeste 32 Noroeste 0 -- -- 25
2019-08-01 19:00:00 35.3 17 Noroeste 33 Oeste 0 -- -- 22
2019-08-01 18:00:00 36.3 13 Oeste 32 Oeste 0 -- -- 20
2019-08-01 17:00:00 36.4 11 Oeste 26 Noroeste 0 -- -- 21
2019-08-01 16:00:00 35.2 10 Oeste 28 Oeste 0 -- -- 22
2019-08-01 15:00:00 33.2 11 Sudoeste 26 Sudoeste 0 -- -- 31
2019-08-01 14:00:00 31.8 11 Sudoeste 21 Sudoeste 0 -- -- 35
2019-08-01 13:00:00 28.9 10 Sudoeste 19 Sur 0 -- -- 42
2019-08-01 12:00:00 25.8 8 Sudoeste 14 Sur 0 -- -- 49
2019-08-01 11:00:00 22.8 5 Sur 12 Sur 0 -- -- 55
2019-08-01 10:00:00 20.4 3 Oeste 13 Sudoeste 0 -- -- 62
2019-08-01 09:00:00 17.6 7 Sudoeste 11 Sudoeste 0 -- -- 70
2019-08-01 08:00:00 16.1 4 Sudoeste 7 Sur 0 -- -- 74
2019-08-01 07:00:00 16.4 5 Sur 8 Sudoeste 0 -- -- 72
2019-08-01 06:00:00 17.3 3 Sudoeste 9 Oeste 0 -- -- 70
2019-08-01 05:00:00 18.2 5 Sudoeste 9 Sudoeste 0 -- -- 66
2019-08-01 04:00:00 19.6 4 Sur 10 Oeste 0 -- -- 62
2019-08-01 03:00:00 20.8 7 Noroeste 13 Oeste 0 -- -- 55
2019-08-01 02:00:00 22.4 4 Oeste 21 Noroeste 0 -- -- 51
2019-08-01 01:00:00 24.1 13 Oeste 26 Noroeste 0 -- -- 46
2019-08-01 00:00:00 25.7 14 Noroeste 23 Noroeste 0 -- -- 43
2019-07-31 23:00:00 26.9 12 Oeste 24 Noroeste 0 -- -- 36
2019-07-31 22:00:00 28.1 18 Noroeste 35 Noroeste 0 -- -- 35
2019-07-31 21:00:00 29.2 20 Noroeste 42 Noroeste 0 -- -- 33
2019-07-31 20:00:00 31.8 27 Noroeste 41 Noroeste 0 -- -- 28
2019-07-31 19:00:00 36.4 17 Noroeste 28 Oeste 0 -- -- 16
2019-07-31 18:00:00 37 9 Sudoeste 29 Sudoeste 0 -- -- 14
2019-07-31 17:00:00 37.3 13 Sudoeste 22 Sudoeste 0 -- -- 15
2019-07-31 16:00:00 36.1 9 Sudoeste 23 Sudoeste 0 -- -- 17
2019-07-31 15:00:00 34.9 11 Sur 25 Sur 0 -- -- 20
2019-07-31 14:00:00 33.9 4 Norte 18 Oeste 0 -- -- 20
2019-07-31 13:00:00 31.6 6 Noroeste 17 Noroeste 0 -- -- 26
2019-07-31 12:00:00 28.3 4 Nordeste 11 Norte 0 -- -- 31
2019-07-31 11:00:00 24.4 3 Norte 9 Noroeste 0 -- -- 41
2019-07-31 10:00:00 19.8 4 Sudoeste 7 Sur 0 -- -- 55
2019-07-31 09:00:00 16.3 2 Oeste 5 Sudoeste 0 -- -- 67
2019-07-31 08:00:00 12.8 3 Sudoeste 4 Sudoeste 0 -- -- 73
2019-07-31 07:00:00 13.6 2 Noroeste 6 Noroeste 0 -- -- 70
2019-07-31 06:00:00 14.7 6 Noroeste 9 Norte 0 -- -- 69
2019-07-31 05:00:00 15.7 4 Noroeste 10 Noroeste 0 -- -- 64
2019-07-31 04:00:00 17.1 5 Noroeste 12 Noroeste 0 -- -- 58
2019-07-31 03:00:00 19 7 Noroeste 17 Noroeste 0 -- -- 55
2019-07-31 02:00:00 20.2 10 Noroeste 26 Noroeste 0 -- -- 51
2019-07-31 01:00:00 21.5 16 Noroeste 30 Noroeste 0 -- -- 49
2019-07-31 00:00:00 22.9 18 Noroeste 32 Noroeste 0 -- -- 46
2019-07-30 23:00:00 24.5 19 Noroeste 31 Noroeste 0 -- -- 43
2019-07-30 22:00:00 26.5 4 Norte 12 Noroeste 0 -- -- 22
2019-07-30 21:00:00 31.2 9 Noroeste 23 Noroeste 0 -- -- 18
2019-07-30 20:00:00 32.9 11 Noroeste 24 Nordeste 0 -- -- 16
2019-07-30 19:00:00 34.2 11 Norte 32 Norte 0 -- -- 16
2019-07-30 18:00:00 33.8 16 Nordeste 36 Norte 0 -- -- 15
2019-07-30 17:00:00 34.1 14 Norte 31 Nordeste 0 -- -- 16
2019-07-30 16:00:00 34.1 11 Norte 28 Norte 0 -- -- 17
2019-07-30 15:00:00 32.4 14 Norte 28 Norte 0 -- -- 19
2019-07-30 14:00:00 31.1 14 Norte 29 Norte 0 -- -- 20
2019-07-30 13:00:00 29.5 15 Norte 36 Norte 0 -- -- 24
2019-07-30 12:00:00 27.1 15 Norte 28 Norte 0 -- -- 30
2019-07-30 11:00:00 24.6 16 Norte 30 Norte 0 -- -- 36
2019-07-30 10:00:00 21.6 14 Norte 24 Norte 0 -- -- 43
2019-07-30 09:00:00 16.6 4 Noroeste 10 Noroeste 0 -- -- 62
2019-07-30 08:00:00 13.1 4 Noroeste 15 Noroeste 0 -- -- 76
2019-07-30 07:00:00 13.9 11 Noroeste 16 Noroeste 0 -- -- 74
2019-07-30 06:00:00 13.9 4 Noroeste 8 Noroeste 0 -- -- 71
2019-07-30 05:00:00 15.2 3 Noroeste 13 Noroeste 0 -- -- 70
2019-07-30 04:00:00 16.3 5 Noroeste 13 Noroeste 0 -- -- 66
2019-07-30 03:00:00 17.1 4 Noroeste 23 Noroeste 0 -- -- 64
2019-07-30 02:00:00 18.1 14 Noroeste 30 Noroeste 0 -- -- 58
2019-07-30 01:00:00 19.4 17 Noroeste 32 Oeste 0 -- -- 52
2019-07-30 00:00:00 21.1 18 Noroeste 31 Noroeste 0 -- -- 45
2019-07-29 23:00:00 22.7 17 Noroeste 36 Noroeste 0 -- -- 43
2019-07-29 22:00:00 24.7 19 Noroeste 40 Noroeste 0 -- -- 38
2019-07-29 21:00:00 27.4 23 Noroeste 39 Noroeste 0 -- -- 33
2019-07-29 20:00:00 29.6 24 Noroeste 39 Noroeste 0 -- -- 27
2019-07-29 19:00:00 31.6 21 Noroeste 40 Oeste 0 -- -- 26
2019-07-29 18:00:00 32.5 19 Noroeste 36 Oeste 0 -- -- 26
2019-07-29 17:00:00 31.9 19 Oeste 35 Oeste 0 -- -- 28
2019-07-29 16:00:00 31.4 18 Oeste 35 Oeste 0 -- -- 31
2019-07-29 15:00:00 30.6 15 Noroeste 35 Oeste 0 -- -- 34
2019-07-29 14:00:00 29.4 18 Noroeste 31 Oeste 0 -- -- 40
2019-07-29 13:00:00 27.7 14 Oeste 35 Noroeste 0 -- -- 48
2019-07-29 12:00:00 26 18 Noroeste 33 Noroeste 0 -- -- 56
2019-07-29 11:00:00 23.7 16 Oeste 31 Oeste 0 -- -- 63
2019-07-29 10:00:00 20.7 16 Noroeste 30 Noroeste 0 -- -- 71
2019-07-29 09:00:00 18.2 12 Noroeste 20 Oeste 0 -- -- 76
2019-07-29 08:00:00 16.2 3 Sur 16 Oeste 0 -- -- 73
2019-07-29 07:00:00 16 7 Oeste 18 Oeste 0 -- -- 75
2019-07-29 06:00:00 16.6 10 Oeste 32 Oeste 0 -- -- 68
2019-07-29 05:00:00 17.2 9 Oeste 22 Oeste 0 -- -- 61
2019-07-29 04:00:00 18.1 10 Oeste 22 Oeste 0 -- -- 59
2019-07-29 03:00:00 19.3 10 Sudoeste 35 Oeste 0 -- -- 57
2019-07-29 02:00:00 20.4 18 Oeste 33 Oeste 0 -- -- 56
2019-07-29 01:00:00 22 25 Noroeste 44 Noroeste 0 -- -- 56
2019-07-29 00:00:00 24.3 22 Noroeste 40 Noroeste 0 -- -- 49
2019-07-28 23:00:00 26.5 19 Noroeste 36 Oeste 0 -- -- 40
2019-07-28 22:00:00 28.6 15 Noroeste 23 Oeste 0 -- -- 37
2019-07-28 21:00:00 31 14 Noroeste 25 Noroeste 0 -- -- 33
2019-07-28 20:00:00 32.5 9 Sudoeste 17 Sudoeste 0 -- -- 32
2019-07-28 19:00:00 33.7 13 Sudoeste 25 Sur 0 -- -- 30
2019-07-28 18:00:00 34.3 4 Norte 23 Norte 0 -- -- 29
2019-07-28 17:00:00 34.1 12 Noroeste 24 Noroeste 0 -- -- 30
2019-07-28 16:00:00 32.2 9 Sur 18 Sur 0 -- -- 33
2019-07-28 15:00:00 31.3 8 Sudoeste 19 Sudoeste 0 -- -- 37
2019-07-28 14:00:00 29.3 7 Oeste 22 Sudoeste 0 -- -- 42
2019-07-28 13:00:00 27 9 Sudoeste 18 Sudoeste 0 -- -- 49
2019-07-28 12:00:00 25 8 Sudoeste 17 Sur 0 -- -- 57
2019-07-28 11:00:00 22.7 6 Sudoeste 16 Sudoeste 0 -- -- 66
2019-07-28 10:00:00 20.1 5 Sur 12 Sur 0 -- -- 75
2019-07-28 09:00:00 17.8 6 Sudoeste 9 Sudoeste 0 -- -- 82
2019-07-28 08:00:00 16.1 4 Sur 6 Sur 0 -- -- 87
2019-07-28 07:00:00 16.4 4 Sudoeste 6 Sudoeste 0 -- -- 86
2019-07-28 06:00:00 17.2 3 Oeste 10 Oeste 0 -- -- 85
2019-07-28 05:00:00 17.6 5 Oeste 9 Oeste 0 -- -- 83
2019-07-28 04:00:00 18.3 4 Oeste 12 Oeste 0 -- -- 80
2019-07-28 03:00:00 19 7 Oeste 15 Noroeste 0 -- -- 76
2019-07-28 02:00:00 19.7 10 Oeste 21 Oeste 0 -- -- 73
2019-07-28 01:00:00 20.2 11 Oeste 19 Noroeste 0 -- -- 67
2019-07-28 00:00:00 21.3 13 Noroeste 19 Noroeste 0 -- -- 60
2019-07-27 23:00:00 22.1 10 Noroeste 19 Noroeste 0 -- -- 55
2019-07-26 12:00:00 25.9 15 Noroeste 29 Noroeste 0 -- -- 45
2019-07-26 11:00:00 22.8 9 Oeste 19 Noroeste 0 -- -- 54
2019-07-26 10:00:00 20.1 11 Oeste 26 Noroeste 0 -- -- 66
2019-07-26 09:00:00 17.6 12 Oeste 21 Noroeste 0 -- -- 76
2019-07-26 08:00:00 16.6 12 Oeste 18 Oeste 0 -- -- 82
2019-07-26 07:00:00 16.3 8 Oeste 19 Oeste 0 -- -- 84
2019-07-26 06:00:00 16.6 11 Oeste 24 Noroeste 0 -- -- 82
2019-07-26 05:00:00 17.6 15 Oeste 26 Oeste 0 -- -- 77
2019-07-26 04:00:00 19.2 11 Oeste 23 Oeste 0 -- -- 71
2019-07-26 03:00:00 20.1 13 Oeste 27 Oeste 0 -- -- 68
2019-07-26 02:00:00 20.8 14 Oeste 27 Oeste 0 -- -- 65
2019-07-26 01:00:00 21.7 18 Oeste 32 Oeste 0 -- -- 68
2019-07-26 00:00:00 22.4 15 Oeste 38 Noroeste 0 -- -- 68
2019-07-25 23:00:00 23.6 19 Noroeste 49 Noroeste 0 -- -- 68
2019-07-25 22:00:00 26.1 24 Noroeste 48 Noroeste 0 -- -- 61
2019-07-25 21:00:00 30.6 19 Noroeste 29 Oeste 0 -- -- 38
2019-07-25 20:00:00 32.8 14 Noroeste 31 Oeste 0 -- -- 33
2019-07-25 19:00:00 34.3 15 Oeste 33 Noroeste 0 -- -- 33
2019-07-25 18:00:00 34.9 13 Oeste 28 Oeste 0 -- -- 30
2019-07-25 17:00:00 35.3 13 Oeste 31 Oeste 0 -- -- 33
2019-07-25 16:00:00 34.6 8 Noroeste 26 Sudoeste 0 -- -- 35
2019-07-25 15:00:00 33 9 Sudoeste 23 Oeste 0 -- -- 38
2019-07-25 14:00:00 31.1 10 Oeste 22 Sudoeste 0 -- -- 44
2019-07-25 13:00:00 29.3 10 Noroeste 19 Noroeste 0 -- -- 52
2019-07-25 12:00:00 27.8 9 Noroeste 16 Oeste 0 -- -- 57
2019-07-25 11:00:00 25.1 9 Noroeste 22 Noroeste 0 -- -- 66
2019-07-25 10:00:00 22.4 15 Noroeste 26 Noroeste 0 -- -- 75
2019-07-25 09:00:00 21.2 10 Noroeste 18 Noroeste 0 -- -- 78
2019-07-25 08:00:00 18.6 4 Noroeste 9 Norte 0 -- -- 83
2019-07-25 07:00:00 19.5 2 Sudoeste 6 Oeste 0 -- -- 80
2019-07-25 06:00:00 20.3 3 Noroeste 15 Oeste 0 -- -- 70
2019-07-25 05:00:00 21.6 6 Oeste 12 Oeste 0 -- -- 69
2019-07-25 04:00:00 22.8 4 Sudoeste 9 Sur 0 -- -- 62
2019-07-25 03:00:00 24.4 4 Oeste 17 Oeste 0 -- -- 56
2019-07-25 02:00:00 25.5 9 Oeste 23 Oeste 0 -- -- 52
2019-07-25 01:00:00 26.9 10 Oeste 28 Noroeste 0 -- -- 44
2019-07-25 00:00:00 28.7 17 Noroeste 32 Noroeste 0 -- -- 37
2019-07-24 23:00:00 30 16 Noroeste 33 Oeste 0 -- -- 33
2019-07-24 22:00:00 32.4 13 Noroeste 32 Oeste 0 -- -- 27
2019-07-24 21:00:00 35.7 14 Oeste 25 Oeste 0 -- -- 24
2019-07-24 20:00:00 37.4 12 Sudoeste 27 Oeste 0 -- -- 23
2019-07-24 19:00:00 38.4 10 Oeste 24 Sudoeste 0 -- -- 24
2019-07-24 18:00:00 38.9 9 Sudoeste 27 Sudoeste 0 -- -- 22
2019-07-24 17:00:00 38.7 13 Sudoeste 23 Sudoeste 0 -- -- 23
2019-07-24 16:00:00 38.2 7 Sur 21 Sudoeste 0 -- -- 25
2019-07-24 15:00:00 36.9 6 Sudoeste 16 Sudoeste 0 -- -- 25
2019-07-24 14:00:00 35.6 6 Sudoeste 15 Sur 0 -- -- 27
2019-07-24 13:00:00 32.9 6 Oeste 14 Oeste 0 -- -- 31
2019-07-24 12:00:00 29.8 8 Sudoeste 15 Sudoeste 0 -- -- 38
2019-07-24 11:00:00 26.7 5 Sudoeste 10 Sudoeste 0 -- -- 48
2019-07-24 10:00:00 23.8 3 Oeste 6 Sudoeste 0 -- -- 55
2019-07-24 09:00:00 21.2 2 Noroeste 7 Norte 0 -- -- 62
2019-07-24 08:00:00 18.5 0 Calma 5 Oeste 0 -- -- 68
2019-07-24 07:00:00 18.5 4 Norte 6 Norte 0 -- -- 67
2019-07-24 06:00:00 19.6 3 Norte 12 Noroeste 0 -- -- 64
2019-07-24 05:00:00 19.8 5 Noroeste 9 Norte 0 -- -- 63
2019-07-24 04:00:00 21.3 3 Oeste 6 Oeste 0 -- -- 60
2019-07-24 03:00:00 22.4 4 Noroeste 14 Noroeste 0 -- -- 56
2019-07-24 02:00:00 23.3 4 Oeste 11 Noroeste 0 -- -- 54
2019-07-24 01:00:00 25 9 Noroeste 21 Noroeste 0 -- -- 49
2019-07-24 00:00:00 27.1 10 Noroeste 27 Noroeste 0 -- -- 46
2019-07-23 23:00:00 29 18 Noroeste 34 Noroeste 0 -- -- 44
2019-07-23 22:00:00 31.5 12 Noroeste 33 Oeste 0 -- -- 39
2019-07-23 21:00:00 34 20 Noroeste 33 Oeste 0 -- -- 32
2019-07-23 20:00:00 36.8 15 Noroeste 31 Oeste 0 -- -- 27
2019-07-23 19:00:00 38 11 Sudoeste 22 Sudoeste 0 -- -- 27
2019-07-23 18:00:00 38.1 9 Oeste 23 Oeste 0 -- -- 28
2019-07-23 17:00:00 37.4 13 Sudoeste 23 Sudoeste 0 -- -- 28
2019-07-23 16:00:00 36.4 13 Sudoeste 28 Sudoeste 0 -- -- 30
2019-07-23 15:00:00 34.9 13 Sur 26 Sudoeste 0 -- -- 32
2019-07-23 14:00:00 33.3 11 Sudoeste 22 Oeste 0 -- -- 33
2019-07-23 13:00:00 31.4 9 Sur 20 Sudoeste 0 -- -- 39
2019-07-23 12:00:00 29.2 11 Sudoeste 23 Sudoeste 0 -- -- 44
2019-07-23 11:00:00 27 11 Sudoeste 18 Sudoeste 0 -- -- 50
2019-07-23 10:00:00 24.7 7 Sudoeste 14 Sudoeste 0 -- -- 57
2019-07-23 09:00:00 22.9 8 Sudoeste 17 Sudoeste 0 -- -- 60
2019-07-23 08:00:00 22 7 Sudoeste 15 Oeste 0 -- -- 59
2019-07-23 07:00:00 22.3 4 Oeste 8 Oeste 0 -- -- 66
2019-07-23 06:00:00 22.6 4 Nordeste 15 Noroeste 0 -- -- 62
2019-07-23 05:00:00 23.7 8 Sudoeste 18 Sudoeste 0 -- -- 59
2019-07-23 04:00:00 24.9 9 Sudoeste 15 Sudoeste 0 -- -- 56
2019-07-23 03:00:00 25.9 5 Sudoeste 9 Sudoeste 0 -- -- 53
2019-07-23 02:00:00 27.3 0 Calma 20 Oeste 0 -- -- 49
2019-07-23 01:00:00 28.7 8 Sudoeste 21 Noroeste 0 -- -- 48
2019-07-23 00:00:00 29.7 14 Noroeste 36 Noroeste 0 -- -- 44
2019-07-22 23:00:00 32 21 Noroeste 39 Oeste 0 -- -- 36
2019-07-22 22:00:00 34.2 16 Noroeste 28 Oeste 0 -- -- 28
2019-07-22 21:00:00 37 13 Noroeste 23 Noroeste 0 -- -- 23
2019-07-22 20:00:00 39.3 5 Oeste 13 Sudoeste 0 -- -- 21
2019-07-22 19:00:00 40.6 8 Sudoeste 15 Sur 0 -- -- 18
2019-07-22 18:00:00 40.7 5 Sur 20 Sur 0 -- -- 17
2019-07-22 17:00:00 40.5 6 Oeste 18 Oeste 0 -- -- 16
2019-07-22 16:00:00 39.8 4 Sur 14 Oeste 0 -- -- 12
2019-07-22 15:00:00 37.9 9 Sudoeste 18 Sudoeste 0 -- -- 16
2019-07-22 14:00:00 35.5 11 Sudoeste 20 Sudoeste 0 -- -- 27
2019-07-22 13:00:00 33 7 Sur 17 Sur 0 -- -- 30
2019-07-22 12:00:00 29.9 7 Oeste 18 Sudoeste 0 -- -- 43
2019-07-22 11:00:00 27.1 8 Sudoeste 17 Sudoeste 0 -- -- 51
2019-07-22 10:00:00 24.2 7 Sudoeste 12 Sur 0 -- -- 57
2019-07-22 09:00:00 21.4 3 Norte 6 Norte 0 -- -- 64
2019-07-22 08:00:00 18.8 4 Norte 6 Norte 0 -- -- 69
2019-07-22 07:00:00 19.7 0 Calma 5 Oeste 0 -- -- 69
2019-07-22 06:00:00 20 4 Noroeste 6 Noroeste 0 -- -- 66
2019-07-22 05:00:00 20.8 3 Noroeste 4 Oeste 0 -- -- 62
2019-07-22 04:00:00 22.5 3 Norte 6 Nordeste 0 -- -- 58
2019-07-22 03:00:00 23.9 6 Noroeste 19 Noroeste 0 -- -- 54
2019-07-22 02:00:00 25.2 3 Noroeste 22 Noroeste 0 -- -- 52
2019-07-22 01:00:00 26.8 11 Noroeste 29 Noroeste 0 -- -- 48
2019-07-22 00:00:00 28.4 18 Noroeste 30 Noroeste 0 -- -- 42
2019-07-21 23:00:00 29.7 20 Noroeste 34 Oeste 0 -- -- 42
2019-07-21 22:00:00 32.5 9 Noroeste 15 Oeste 0 -- -- 27
2019-07-21 21:00:00 35.5 12 Noroeste 20 Noroeste 0 -- -- 23
2019-07-21 20:00:00 38.2 13 Noroeste 26 Oeste 0 -- -- 19
2019-07-21 19:00:00 39.3 10 Noroeste 22 Noroeste 0 -- -- 17
2019-07-21 18:00:00 39.7 8 Noroeste 20 Sudoeste 0 -- -- 18
2019-07-21 17:00:00 39.1 9 Oeste 19 Noroeste 0 -- -- 18
2019-07-21 16:00:00 36.7 7 Sudoeste 15 Sudoeste 0 -- -- 24
2019-07-21 15:00:00 33.6 5 Sudoeste 12 Sudoeste 0 -- -- 30
2019-07-21 14:00:00 29.5 5 Sudoeste 12 Sudoeste 0 -- -- 41
2019-07-21 13:00:00 25.7 5 Sudoeste 10 Oeste 0 -- -- 48
2019-07-21 12:00:00 22.2 2 Sudoeste 10 Sur 0 -- -- 56
2019-07-21 11:00:00 20.6 3 Sur 9 Noroeste 0 -- -- 64
2019-07-21 10:00:00 18.5 4 Oeste 9 Noroeste 0 -- -- 70
2019-07-21 09:00:00 16.8 3 Norte 5 Norte 0 -- -- 77
2019-07-21 08:00:00 16.3 3 Sur 5 Sur 0 -- -- 78
2019-07-21 07:00:00 17 4 Oeste 13 Oeste 0 -- -- 73
2019-07-21 06:00:00 17.5 8 Noroeste 15 Oeste 0 -- -- 70
2019-07-21 05:00:00 18.5 4 Oeste 14 Oeste 0 -- -- 69
2019-07-21 04:00:00 19.5 5 Oeste 17 Noroeste 0 -- -- 67
2019-07-21 03:00:00 20.6 8 Noroeste 22 Oeste 0 -- -- 63
2019-07-21 02:00:00 21.9 8 Oeste 20 Oeste 0 -- -- 60
2019-07-21 01:00:00 23.4 10 Oeste 26 Oeste 0 -- -- 57
2019-07-21 00:00:00 25.2 18 Noroeste 38 Noroeste 0 -- -- 54